sensor_id;sensor_type;location;lat;lon;timestamp;pressure;altitude;pressure_sealevel;temperature;humidity
72210;BME280;60113;48.762;12.302;2024-02-04T00:00:00;98109.19;;;5.03;100.00
72210;BME280;60113;48.762;12.302;2024-02-04T00:02:27;98106.59;;;5.03;100.00
72210;BME280;60113;48.762;12.302;2024-02-04T00:04:53;98102.28;;;5.02;100.00
72210;BME280;60113;48.762;12.302;2024-02-04T00:07:21;98104.91;;;5.02;100.00
72210;BME280;60113;48.762;12.302;2024-02-04T00:09:47;98091.88;;;5.02;100.00
72210;BME280;60113;48.762;12.302;2024-02-04T00:12:14;98092.72;;;5.02;100.00
72210;BME280;60113;48.762;12.302;2024-02-04T00:14:40;98089.22;;;5.03;100.00
72210;BME280;60113;48.762;12.302;2024-02-04T00:17:06;98087.47;;;5.04;100.00
72210;BME280;60113;48.762;12.302;2024-02-04T00:19:32;98074.44;;;5.04;100.00
72210;BME280;60113;48.762;12.302;2024-02-04T00:21:58;98067.44;;;5.04;100.00
72210;BME280;60113;48.762;12.302;2024-02-04T00:24:23;98064.03;;;5.04;100.00
72210;BME280;60113;48.762;12.302;2024-02-04T00:26:49;98071.84;;;5.04;100.00
72210;BME280;60113;48.762;12.302;2024-02-04T00:29:16;98064.13;;;5.00;100.00
72210;BME280;60113;48.762;12.302;2024-02-04T00:31:42;98057.09;;;5.03;100.00
72210;BME280;60113;48.762;12.302;2024-02-04T00:34:08;98058.88;;;5.02;100.00
72210;BME280;60113;48.762;12.302;2024-02-04T00:36:34;98054.56;;;5.01;100.00
72210;BME280;60113;48.762;12.302;2024-02-04T00:38:59;98051.94;;;5.01;100.00
72210;BME280;60113;48.762;12.302;2024-02-04T00:41:25;98038.03;;;5.02;100.00
72210;BME280;60113;48.762;12.302;2024-02-04T00:43:51;98020.63;;;5.03;100.00
72210;BME280;60113;48.762;12.302;2024-02-04T00:46:18;98024.94;;;5.04;100.00
72210;BME280;60113;48.762;12.302;2024-02-04T00:48:43;98034.50;;;5.03;100.00
72210;BME280;60113;48.762;12.302;2024-02-04T00:51:09;98036.25;;;5.03;100.00
72210;BME280;60113;48.762;12.302;2024-02-04T00:53:34;98045.78;;;5.04;100.00
72210;BME280;60113;48.762;12.302;2024-02-04T00:56:01;98059.63;;;5.04;100.00
72210;BME280;60113;48.762;12.302;2024-02-04T00:58:28;98050.13;;;5.03;100.00
72210;BME280;60113;48.762;12.302;2024-02-04T01:00:56;98052.81;;;5.02;100.00
72210;BME280;60113;48.762;12.302;2024-02-04T01:03:22;98058.06;;;5.00;100.00
72210;BME280;60113;48.762;12.302;2024-02-04T01:05:50;98056.31;;;5.00;100.00
72210;BME280;60113;48.762;12.302;2024-02-04T01:08:16;98051.13;;;5.00;100.00
72210;BME280;60113;48.762;12.302;2024-02-04T01:10:41;98037.19;;;5.02;100.00
72210;BME280;60113;48.762;12.302;2024-02-04T01:13:07;98035.50;;;5.00;100.00
72210;BME280;60113;48.762;12.302;2024-02-04T01:15:32;98026.75;;;5.02;100.00
72210;BME280;60113;48.762;12.302;2024-02-04T01:17:58;98038.72;;;5.06;100.00
72210;BME280;60113;48.762;12.302;2024-02-04T01:20:26;98040.44;;;5.07;100.00
72210;BME280;60113;48.762;12.302;2024-02-04T01:22:52;98049.03;;;5.09;100.00
72210;BME280;60113;48.762;12.302;2024-02-04T01:25:17;98045.41;;;5.13;100.00
72210;BME280;60113;48.762;12.302;2024-02-04T01:27:45;98059.25;;;5.13;100.00
72210;BME280;60113;48.762;12.302;2024-02-04T01:30:10;98055.78;;;5.15;100.00
72210;BME280;60113;48.762;12.302;2024-02-04T01:32:36;98053.09;;;5.16;100.00
72210;BME280;60113;48.762;12.302;2024-02-04T01:35:02;98048.78;;;5.15;100.00
72210;BME280;60113;48.762;12.302;2024-02-04T01:37:28;98046.22;;;5.13;100.00
72210;BME280;60113;48.762;12.302;2024-02-04T01:39:54;98043.69;;;5.12;100.00
72210;BME280;60113;48.762;12.302;2024-02-04T01:42:21;98048.97;;;5.10;100.00
72210;BME280;60113;48.762;12.302;2024-02-04T01:44:46;98049.81;;;5.11;100.00
72210;BME280;60113;48.762;12.302;2024-02-04T01:47:12;98042.94;;;5.10;100.00
72210;BME280;60113;48.762;12.302;2024-02-04T01:49:40;98050.75;;;5.10;100.00
72210;BME280;60113;48.762;12.302;2024-02-04T01:52:05;98056.84;;;5.09;100.00
72210;BME280;60113;48.762;12.302;2024-02-04T01:54:33;98068.97;;;5.10;100.00
72210;BME280;60113;48.762;12.302;2024-02-04T01:56:59;98059.44;;;5.09;100.00
72210;BME280;60113;48.762;12.302;2024-02-04T01:59:29;98062.06;;;5.09;100.00
72210;BME280;60113;48.762;12.302;2024-02-04T02:02:02;98052.56;;;5.08;100.00
72210;BME280;60113;48.762;12.302;2024-02-04T02:04:28;98054.31;;;5.07;100.00
72210;BME280;60113;48.762;12.302;2024-02-04T02:06:55;98055.28;;;5.05;100.00
72210;BME280;60113;48.762;12.302;2024-02-04T02:09:21;98047.47;;;5.05;100.00
72210;BME280;60113;48.762;12.302;2024-02-04T02:14:32;98034.56;;;5.02;100.00
72210;BME280;60113;48.762;12.302;2024-02-04T02:17:02;98022.34;;;5.04;100.00
72210;BME280;60113;48.762;12.302;2024-02-04T02:19:45;98017.06;;;5.05;100.00
72210;BME280;60113;48.762;12.302;2024-02-04T02:22:25;98024.81;;;5.07;100.00
72210;BME280;60113;48.762;12.302;2024-02-04T02:24:52;98020.56;;;5.04;100.00
72210;BME280;60113;48.762;12.302;2024-02-04T02:27:20;98015.41;;;5.03;100.00
72210;BME280;60113;48.762;12.302;2024-02-04T02:29:47;98017.25;;;5.00;100.00
72210;BME280;60113;48.762;12.302;2024-02-04T02:32:12;98019.84;;;5.00;100.00
72210;BME280;60113;48.762;12.302;2024-02-04T02:34:38;98011.19;;;5.00;100.00
72210;BME280;60113;48.762;12.302;2024-02-04T02:37:27;98012.09;;;4.99;100.00
72210;BME280;60113;48.762;12.302;2024-02-04T02:42:30;98014.84;;;4.96;100.00
72210;BME280;60113;48.762;12.302;2024-02-04T02:44:57;98020.88;;;4.96;100.00
72210;BME280;60113;48.762;12.302;2024-02-04T02:47:26;98013.00;;;4.98;100.00
72210;BME280;60113;48.762;12.302;2024-02-04T02:49:54;98019.00;;;5.00;100.00
72210;BME280;60113;48.762;12.302;2024-02-04T02:52:23;98010.31;;;4.99;100.00
72210;BME280;60113;48.762;12.302;2024-02-04T02:54:48;98014.66;;;5.00;100.00
72210;BME280;60113;48.762;12.302;2024-02-04T02:57:15;98022.41;;;5.02;100.00
72210;BME280;60113;48.762;12.302;2024-02-04T02:59:40;98033.66;;;5.03;100.00
72210;BME280;60113;48.762;12.302;2024-02-04T03:02:06;98033.66;;;5.03;100.00
72210;BME280;60113;48.762;12.302;2024-02-04T03:04:31;98035.44;;;5.02;100.00
72210;BME280;60113;48.762;12.302;2024-02-04T03:06:57;98025.00;;;5.02;100.00
72210;BME280;60113;48.762;12.302;2024-02-04T03:09:22;98048.50;;;5.00;100.00
72210;BME280;60113;48.762;12.302;2024-02-04T03:11:48;98039.03;;;4.98;100.00
72210;BME280;60113;48.762;12.302;2024-02-04T03:14:16;98041.00;;;4.93;100.00
72210;BME280;60113;48.762;12.302;2024-02-04T03:16:45;98040.34;;;4.87;100.00
72210;BME280;60113;48.762;12.302;2024-02-04T03:19:10;98035.19;;;4.86;100.00
72210;BME280;60113;48.762;12.302;2024-02-04T03:21:36;98037.00;;;4.84;100.00
72210;BME280;60113;48.762;12.302;2024-02-04T03:24:03;98042.25;;;4.82;100.00
72210;BME280;60113;48.762;12.302;2024-02-04T03:26:28;98046.72;;;4.80;100.00
72210;BME280;60113;48.762;12.302;2024-02-04T03:28:54;98051.19;;;4.77;100.00
72210;BME280;60113;48.762;12.302;2024-02-04T03:31:24;98051.25;;;4.75;100.00
72210;BME280;60113;48.762;12.302;2024-02-04T03:33:51;98054.03;;;4.70;100.00
72210;BME280;60113;48.762;12.302;2024-02-04T03:36:19;98059.28;;;4.69;100.00
72210;BME280;60113;48.762;12.302;2024-02-04T03:38:45;98058.59;;;4.65;100.00
72210;BME280;60113;48.762;12.302;2024-02-04T03:41:10;98053.44;;;4.63;100.00
72210;BME280;60113;48.762;12.302;2024-02-04T03:43:36;98056.97;;;4.61;100.00
72210;BME280;60113;48.762;12.302;2024-02-04T03:46:02;98058.75;;;4.60;100.00
72210;BME280;60113;48.762;12.302;2024-02-04T03:48:27;98058.03;;;4.57;100.00
72210;BME280;60113;48.762;12.302;2024-02-04T03:50:54;98060.81;;;4.52;100.00
72210;BME280;60113;48.762;12.302;2024-02-04T03:53:19;98064.38;;;4.49;100.00
72210;BME280;60113;48.762;12.302;2024-02-04T03:55:46;98064.44;;;4.48;100.00
72210;BME280;60113;48.762;12.302;2024-02-04T03:58:11;98061.03;;;4.46;100.00
72210;BME280;60113;48.762;12.302;2024-02-04T04:00:38;98056.81;;;4.43;100.00
72210;BME280;60113;48.762;12.302;2024-02-04T04:03:05;98041.25;;;4.42;100.00
72210;BME280;60113;48.762;12.302;2024-02-04T04:05:30;98042.06;;;4.42;100.00
72210;BME280;60113;48.762;12.302;2024-02-04T04:07:56;98063.81;;;4.41;100.00
72210;BME280;60113;48.762;12.302;2024-02-04T04:10:22;98059.56;;;4.38;100.00
72210;BME280;60113;48.762;12.302;2024-02-04T04:12:48;98052.66;;;4.37;100.00
72210;BME280;60113;48.762;12.302;2024-02-04T04:15:13;98054.44;;;4.37;100.00
72210;BME280;60113;48.762;12.302;2024-02-04T04:17:39;98052.78;;;4.34;100.00
72210;BME280;60113;48.762;12.302;2024-02-04T04:20:07;98048.53;;;4.32;100.00
72210;BME280;60113;48.762;12.302;2024-02-04T04:22:32;98045.13;;;4.30;100.00
72210;BME280;60113;48.762;12.302;2024-02-04T04:24:58;98054.78;;;4.28;100.00
72210;BME280;60113;48.762;12.302;2024-02-04T04:27:24;98048.72;;;4.27;100.00
72210;BME280;60113;48.762;12.302;2024-02-04T04:29:50;98050.50;;;4.25;100.00
72210;BME280;60113;48.762;12.302;2024-02-04T04:32:17;98040.09;;;4.25;100.00
72210;BME280;60113;48.762;12.302;2024-02-04T04:34:42;98043.63;;;4.24;100.00
72210;BME280;60113;48.762;12.302;2024-02-04T04:37:08;98027.97;;;4.25;100.00
72210;BME280;60113;48.762;12.302;2024-02-04T04:39:33;98034.91;;;4.25;100.00
72210;BME280;60113;48.762;12.302;2024-02-04T04:41:59;98045.25;;;4.27;100.00
72210;BME280;60113;48.762;12.302;2024-02-04T04:44:24;98046.13;;;4.27;100.00
72210;BME280;60113;48.762;12.302;2024-02-04T04:46:50;98053.97;;;4.25;100.00
72210;BME280;60113;48.762;12.302;2024-02-04T04:49:17;98050.50;;;4.25;100.00
72210;BME280;60113;48.762;12.302;2024-02-04T04:51:46;98048.78;;;4.25;100.00
72210;BME280;60113;48.762;12.302;2024-02-04T04:54:12;98050.50;;;4.25;100.00
72210;BME280;60113;48.762;12.302;2024-02-04T04:56:40;98047.03;;;4.26;100.00
72210;BME280;60113;48.762;12.302;2024-02-04T04:59:07;98051.38;;;4.25;100.00
72210;BME280;60113;48.762;12.302;2024-02-04T05:01:33;98058.31;;;4.25;100.00
72210;BME280;60113;48.762;12.302;2024-02-04T05:03:58;98054.78;;;4.28;100.00
72210;BME280;60113;48.762;12.302;2024-02-04T05:06:24;98049.56;;;4.28;100.00
72210;BME280;60113;48.762;12.302;2024-02-04T05:08:51;98048.72;;;4.27;100.00
72210;BME280;60113;48.762;12.302;2024-02-04T05:11:17;98053.06;;;4.27;100.00
72210;BME280;60113;48.762;12.302;2024-02-04T05:13:44;98045.25;;;4.27;100.00
72210;BME280;60113;48.762;12.302;2024-02-04T05:16:11;98045.19;;;4.28;100.00
72210;BME280;60113;48.762;12.302;2024-02-04T05:18:36;98041.78;;;4.28;100.00
72210;BME280;60113;48.762;12.302;2024-02-04T05:21:02;98036.50;;;4.29;100.00
72210;BME280;60113;48.762;12.302;2024-02-04T05:23:28;98033.09;;;4.27;100.00
72210;BME280;60113;48.762;12.302;2024-02-04T05:25:53;98039.22;;;4.26;100.00
72210;BME280;60113;48.762;12.302;2024-02-04T05:28:19;98039.22;;;4.26;100.00
72210;BME280;60113;48.762;12.302;2024-02-04T05:30:45;98034.84;;;4.27;100.00
72210;BME280;60113;48.762;12.302;2024-02-04T05:33:13;98038.25;;;4.29;100.00
72210;BME280;60113;48.762;12.302;2024-02-04T05:35:39;98039.94;;;4.30;100.00
72210;BME280;60113;48.762;12.302;2024-02-04T05:38:09;98030.38;;;4.30;100.00
72210;BME280;60113;48.762;12.302;2024-02-04T05:40:35;98030.28;;;4.33;100.00
72210;BME280;60113;48.762;12.302;2024-02-04T05:43:02;98032.88;;;4.33;100.00
72210;BME280;60113;48.762;12.302;2024-02-04T05:45:33;98029.41;;;4.33;100.00
72210;BME280;60113;48.762;12.302;2024-02-04T05:47:59;98033.72;;;4.34;100.00
72210;BME280;60113;48.762;12.302;2024-02-04T05:50:27;98041.59;;;4.32;100.00
72210;BME280;60113;48.762;12.302;2024-02-04T05:52:52;98034.63;;;4.33;100.00
72210;BME280;60113;48.762;12.302;2024-02-04T05:55:18;98030.22;;;4.35;100.00
72210;BME280;60113;48.762;12.302;2024-02-04T05:57:44;98039.69;;;4.36;100.00
72210;BME280;60113;48.762;12.302;2024-02-04T06:00:12;98037.09;;;4.36;100.00
72210;BME280;60113;48.762;12.302;2024-02-04T06:02:38;98051.81;;;4.37;100.00
72210;BME280;60113;48.762;12.302;2024-02-04T06:05:05;98044.09;;;4.35;100.00
72210;BME280;60113;48.762;12.302;2024-02-04T06:07:31;98036.28;;;4.35;100.00
72210;BME280;60113;48.762;12.302;2024-02-04T06:09:56;98044.91;;;4.36;100.00
72210;BME280;60113;48.762;12.302;2024-02-04T06:12:23;98040.63;;;4.35;100.00
72210;BME280;60113;48.762;12.302;2024-02-04T06:14:49;98035.47;;;4.33;100.00
72210;BME280;60113;48.762;12.302;2024-02-04T06:17:15;98046.78;;;4.32;100.00
72210;BME280;60113;48.762;12.302;2024-02-04T06:19:41;98044.31;;;4.29;100.00
72210;BME280;60113;48.762;12.302;2024-02-04T06:22:06;98037.50;;;4.25;100.00
72210;BME280;60113;48.762;12.302;2024-02-04T06:24:32;98037.56;;;4.23;100.00
72210;BME280;60113;48.762;12.302;2024-02-04T06:26:57;98029.00;;;4.21;100.00
72210;BME280;60113;48.762;12.302;2024-02-04T06:29:23;98026.38;;;4.21;100.00
72210;BME280;60113;48.762;12.302;2024-02-04T06:31:48;98035.94;;;4.21;100.00
72210;BME280;60113;48.762;12.302;2024-02-04T06:34:15;98035.06;;;4.20;100.00
72210;BME280;60113;48.762;12.302;2024-02-04T06:36:44;98047.25;;;4.20;100.00
72210;BME280;60113;48.762;12.302;2024-02-04T06:39:11;98041.19;;;4.19;100.00
72210;BME280;60113;48.762;12.302;2024-02-04T06:41:36;98056.00;;;4.17;100.00
72210;BME280;60113;48.762;12.302;2024-02-04T06:44:03;98043.00;;;4.17;100.00
72210;BME280;60113;48.762;12.302;2024-02-04T06:46:29;98051.78;;;4.15;100.00
72210;BME280;60113;48.762;12.302;2024-02-04T06:48:54;98051.81;;;4.13;100.00
72210;BME280;60113;48.762;12.302;2024-02-04T06:51:20;98053.50;;;4.14;100.00
72210;BME280;60113;48.762;12.302;2024-02-04T06:53:46;98044.81;;;4.15;100.00
72210;BME280;60113;48.762;12.302;2024-02-04T06:56:11;98048.31;;;4.14;100.00
72210;BME280;60113;48.762;12.302;2024-02-04T06:58:38;98050.03;;;4.15;100.00
72210;BME280;60113;48.762;12.302;2024-02-04T07:01:03;98030.91;;;4.16;100.00
72210;BME280;60113;48.762;12.302;2024-02-04T07:03:30;98043.00;;;4.17;100.00
72210;BME280;60113;48.762;12.302;2024-02-04T07:05:58;98041.13;;;4.21;100.00
72210;BME280;60113;48.762;12.302;2024-02-04T07:08:25;98042.75;;;4.23;100.00
72210;BME280;60113;48.762;12.302;2024-02-04T07:10:50;98047.09;;;4.24;100.00
72210;BME280;60113;48.762;12.302;2024-02-04T07:13:17;98054.03;;;4.24;100.00
72210;BME280;60113;48.762;12.302;2024-02-04T07:15:42;98049.69;;;4.24;100.00
72210;BME280;60113;48.762;12.302;2024-02-04T07:18:09;98058.31;;;4.25;100.00
72210;BME280;60113;48.762;12.302;2024-02-04T07:20:35;98046.97;;;4.28;100.00
72210;BME280;60113;48.762;12.302;2024-02-04T07:23:02;98038.38;;;4.25;100.00
72210;BME280;60113;48.762;12.302;2024-02-04T07:25:27;98041.81;;;4.26;100.00
72210;BME280;60113;48.762;12.302;2024-02-04T07:27:54;98039.16;;;4.28;100.00
72210;BME280;60113;48.762;12.302;2024-02-04T07:30:19;98030.44;;;4.29;100.00
72210;BME280;60113;48.762;12.302;2024-02-04T07:32:46;98021.66;;;4.31;100.00
72210;BME280;60113;48.762;12.302;2024-02-04T07:35:12;98016.47;;;4.31;100.00
72210;BME280;60113;48.762;12.302;2024-02-04T07:37:38;98031.25;;;4.31;100.00
72210;BME280;60113;48.762;12.302;2024-02-04T07:40:04;98031.19;;;4.32;100.00
72210;BME280;60113;48.762;12.302;2024-02-04T07:42:33;98026.69;;;4.36;100.00
72210;BME280;60113;48.762;12.302;2024-02-04T07:44:59;98029.13;;;4.41;100.00
72210;BME280;60113;48.762;12.302;2024-02-04T07:47:24;98011.69;;;4.43;100.00
72210;BME280;60113;48.762;12.302;2024-02-04T07:49:50;98014.13;;;4.47;100.00
72210;BME280;60113;48.762;12.302;2024-02-04T07:52:16;98013.09;;;4.52;100.00
72210;BME280;60113;48.762;12.302;2024-02-04T07:54:41;98006.88;;;4.56;100.00
72210;BME280;60113;48.762;12.302;2024-02-04T07:57:08;98021.44;;;4.60;100.00
72210;BME280;60113;48.762;12.302;2024-02-04T07:59:34;98019.66;;;4.62;100.00
72210;BME280;60113;48.762;12.302;2024-02-04T08:02:03;98008.25;;;4.65;100.00
72210;BME280;60113;48.762;12.302;2024-02-04T08:04:28;98016.78;;;4.68;100.00
72210;BME280;60113;48.762;12.302;2024-02-04T08:06:54;98032.28;;;4.71;100.00
72210;BME280;60113;48.762;12.302;2024-02-04T08:09:20;98027.88;;;4.73;100.00
72210;BME280;60113;48.762;12.302;2024-02-04T08:11:45;98013.03;;;4.75;100.00
72210;BME280;60113;48.762;12.302;2024-02-04T08:14:11;98019.00;;;4.78;100.00
72210;BME280;60113;48.762;12.302;2024-02-04T08:16:39;98017.13;;;4.81;100.00
72210;BME280;60113;48.762;12.302;2024-02-04T08:19:05;98016.09;;;4.85;100.00
72210;BME280;60113;48.762;12.302;2024-02-04T08:21:32;98027.19;;;4.91;100.00
72210;BME280;60113;48.762;12.302;2024-02-04T08:23:58;98022.72;;;4.94;100.00
72210;BME280;60113;48.762;12.302;2024-02-04T08:26:24;98016.47;;;4.98;100.00
72210;BME280;60113;48.762;12.302;2024-02-04T08:28:50;98012.94;;;4.99;100.00
72210;BME280;60113;48.762;12.302;2024-02-04T08:31:15;98002.31;;;5.04;100.00
72210;BME280;60113;48.762;12.302;2024-02-04T08:33:41;97989.09;;;5.09;100.00
72210;BME280;60113;48.762;12.302;2024-02-04T08:36:07;97998.50;;;5.13;100.00
72210;BME280;60113;48.762;12.302;2024-02-04T08:38:37;97993.94;;;5.18;100.00
72210;BME280;60113;48.762;12.302;2024-02-04T08:41:03;97998.06;;;5.24;100.00
72210;BME280;60113;48.762;12.302;2024-02-04T08:43:28;98001.44;;;5.26;100.00
72210;BME280;60113;48.762;12.302;2024-02-04T08:45:54;98000.53;;;5.27;100.00
72210;BME280;60113;48.762;12.302;2024-02-04T08:48:19;98002.16;;;5.30;100.00
72210;BME280;60113;48.762;12.302;2024-02-04T08:50:45;97998.44;;;5.35;100.00
72210;BME280;60113;48.762;12.302;2024-02-04T08:53:12;98003.44;;;5.40;100.00
72210;BME280;60113;48.762;12.302;2024-02-04T08:55:37;98009.38;;;5.44;100.00
72210;BME280;60113;48.762;12.302;2024-02-04T08:58:04;97997.03;;;5.47;100.00
72210;BME280;60113;48.762;12.302;2024-02-04T09:00:29;98002.84;;;5.54;100.00
72210;BME280;60113;48.762;12.302;2024-02-04T09:02:54;97998.22;;;5.61;100.00
72210;BME280;60113;48.762;12.302;2024-02-04T09:05:21;98005.72;;;5.69;100.00
72210;BME280;60113;48.762;12.302;2024-02-04T09:07:47;97997.63;;;5.75;100.00
72210;BME280;60113;48.762;12.302;2024-02-04T09:10:13;97997.50;;;5.78;100.00
72210;BME280;60113;48.762;12.302;2024-02-04T09:12:38;98002.44;;;5.84;100.00
72210;BME280;60113;48.762;12.302;2024-02-04T09:15:05;97990.78;;;5.92;100.00
72210;BME280;60113;48.762;12.302;2024-02-04T09:17:31;98006.84;;;6.01;100.00
72210;BME280;60113;48.762;12.302;2024-02-04T09:19:59;97993.63;;;6.06;100.00
72210;BME280;60113;48.762;12.302;2024-02-04T09:22:24;97991.75;;;6.10;100.00
72210;BME280;60113;48.762;12.302;2024-02-04T09:24:50;97983.00;;;6.11;100.00
72210;BME280;60113;48.762;12.302;2024-02-04T09:27:16;97996.09;;;6.09;100.00
72210;BME280;60113;48.762;12.302;2024-02-04T09:29:41;97998.50;;;6.14;100.00
72210;BME280;60113;48.762;12.302;2024-02-04T09:32:07;98008.94;;;6.14;100.00
72210;BME280;60113;48.762;12.302;2024-02-04T09:34:33;98012.47;;;6.13;100.00
72210;BME280;60113;48.762;12.302;2024-02-04T09:36:58;98019.44;;;6.12;100.00
72210;BME280;60113;48.762;12.302;2024-02-04T09:39:24;98020.44;;;6.10;100.00
72210;BME280;60113;48.762;12.302;2024-02-04T09:41:49;98021.31;;;6.10;100.00
72210;BME280;60113;48.762;12.302;2024-02-04T09:44:16;98014.59;;;6.05;100.00
72210;BME280;60113;48.762;12.302;2024-02-04T09:46:42;98022.28;;;6.08;100.00
72210;BME280;60113;48.762;12.302;2024-02-04T09:49:08;98029.13;;;6.10;100.00
72210;BME280;60113;48.762;12.302;2024-02-04T09:51:34;98018.69;;;6.10;100.00
72210;BME280;60113;48.762;12.302;2024-02-04T09:54:03;98027.28;;;6.12;100.00
72210;BME280;60113;48.762;12.302;2024-02-04T09:56:33;98019.25;;;6.17;100.00
72210;BME280;60113;48.762;12.302;2024-02-04T09:59:01;98026.88;;;6.22;100.00
72210;BME280;60113;48.762;12.302;2024-02-04T10:01:26;98010.16;;;6.26;100.00
72210;BME280;60113;48.762;12.302;2024-02-04T10:03:52;98005.41;;;6.34;100.00
72210;BME280;60113;48.762;12.302;2024-02-04T10:06:18;98000.69;;;6.43;100.00
72210;BME280;60113;48.762;12.302;2024-02-04T10:08:44;98012.59;;;6.48;100.00
72210;BME280;60113;48.762;12.302;2024-02-04T10:11:11;97990.53;;;6.56;100.00
72210;BME280;60113;48.762;12.302;2024-02-04T10:13:47;97992.63;;;6.67;100.00
72210;BME280;60113;48.762;12.302;2024-02-04T10:16:13;97988.84;;;6.72;100.00
72210;BME280;60113;48.762;12.302;2024-02-04T10:18:44;97996.16;;;6.83;100.00
72210;BME280;60113;48.762;12.302;2024-02-04T10:21:19;98002.00;;;6.88;99.43
72210;BME280;60113;48.762;12.302;2024-02-04T10:23:46;98014.09;;;6.91;100.00
72210;BME280;60113;48.762;12.302;2024-02-04T10:26:12;98010.47;;;6.94;100.00
72210;BME280;60113;48.762;12.302;2024-02-04T10:28:38;97999.94;;;6.95;100.00
72210;BME280;60113;48.762;12.302;2024-02-04T10:31:13;98005.88;;;6.99;100.00
72210;BME280;60113;48.762;12.302;2024-02-04T10:33:38;98003.03;;;7.04;100.00
72210;BME280;60113;48.762;12.302;2024-02-04T10:36:04;97987.94;;;7.09;100.00
72210;BME280;60113;48.762;12.302;2024-02-04T10:38:31;97982.56;;;7.12;100.00
72210;BME280;60113;48.762;12.302;2024-02-04T10:40:59;97973.38;;;7.22;100.00
72210;BME280;60113;48.762;12.302;2024-02-04T10:43:33;97952.38;;;7.24;97.55
72210;BME280;60113;48.762;12.302;2024-02-04T10:46:12;97963.19;;;7.34;97.66
72210;BME280;60113;48.762;12.302;2024-02-04T10:48:41;97950.50;;;7.44;96.94
72210;BME280;60113;48.762;12.302;2024-02-04T10:51:15;97934.72;;;7.61;97.61
72210;BME280;60113;48.762;12.302;2024-02-04T10:53:42;97937.56;;;7.74;97.45
72210;BME280;60113;48.762;12.302;2024-02-04T10:56:18;97932.25;;;7.76;95.20
72210;BME280;60113;48.762;12.302;2024-02-04T10:58:47;97938.09;;;7.81;97.46
72210;BME280;60113;48.762;12.302;2024-02-04T11:01:13;97944.84;;;7.85;99.90
72210;BME280;60113;48.762;12.302;2024-02-04T11:03:40;97945.50;;;7.73;94.85
72210;BME280;60113;48.762;12.302;2024-02-04T11:06:10;97953.34;;;7.73;95.80
72210;BME280;60113;48.762;12.302;2024-02-04T11:08:38;97949.03;;;7.72;97.46
72210;BME280;60113;48.762;12.302;2024-02-04T11:11:03;97951.56;;;7.73;97.03
72210;BME280;60113;48.762;12.302;2024-02-04T11:13:29;97949.63;;;7.77;99.32
72210;BME280;60113;48.762;12.302;2024-02-04T11:15:57;97957.88;;;7.69;97.07
72210;BME280;60113;48.762;12.302;2024-02-04T11:18:46;97957.84;;;7.53;94.79
72210;BME280;60113;48.762;12.302;2024-02-04T11:24:54;97941.25;;;7.36;94.96
72210;BME280;60113;48.762;12.302;2024-02-04T11:27:24;97953.97;;;7.27;94.82
72210;BME280;60113;48.762;12.302;2024-02-04T11:29:52;97924.44;;;7.24;97.11
72210;BME280;60113;48.762;12.302;2024-02-04T11:32:18;97941.13;;;7.22;97.73
72210;BME280;60113;48.762;12.302;2024-02-04T11:34:45;97941.28;;;7.19;97.71
72210;BME280;60113;48.762;12.302;2024-02-04T11:37:16;97936.31;;;7.14;97.63
72210;BME280;60113;48.762;12.302;2024-02-04T11:39:50;97938.44;;;7.06;96.71
72210;BME280;60113;48.762;12.302;2024-02-04T11:42:16;97928.94;;;7.05;97.92
72210;BME280;60113;48.762;12.302;2024-02-04T11:44:44;97930.69;;;7.04;99.21
72210;BME280;60113;48.762;12.302;2024-02-04T11:47:10;97922.25;;;6.99;98.72
72210;BME280;60113;48.762;12.302;2024-02-04T11:49:36;97928.47;;;6.96;98.55
72210;BME280;60113;48.762;12.302;2024-02-04T11:52:02;97925.25;;;6.91;99.09
72210;BME280;60113;48.762;12.302;2024-02-04T11:54:27;97932.22;;;6.91;99.68
72210;BME280;60113;48.762;12.302;2024-02-04T11:56:54;97926.22;;;6.88;100.00
72210;BME280;60113;48.762;12.302;2024-02-04T11:59:22;97931.59;;;6.85;100.00
72210;BME280;60113;48.762;12.302;2024-02-04T12:01:56;97926.47;;;6.84;99.76
72210;BME280;60113;48.762;12.302;2024-02-04T12:04:24;97915.34;;;6.80;100.00
72210;BME280;60113;48.762;12.302;2024-02-04T12:06:53;97923.19;;;6.80;100.00
72210;BME280;60113;48.762;12.302;2024-02-04T12:09:19;97918.09;;;6.77;99.93
72210;BME280;60113;48.762;12.302;2024-02-04T12:11:46;97913.78;;;6.76;99.02
72210;BME280;60113;48.762;12.302;2024-02-04T12:14:13;97904.25;;;6.75;99.49
72210;BME280;60113;48.762;12.302;2024-02-04T12:16:40;97898.09;;;6.76;99.37
72210;BME280;60113;48.762;12.302;2024-02-04T12:19:10;97898.03;;;6.78;99.33
72210;BME280;60113;48.762;12.302;2024-02-04T12:21:37;97887.59;;;6.78;98.67
72210;BME280;60113;48.762;12.302;2024-02-04T12:24:03;97884.97;;;6.78;98.66
72210;BME280;60113;48.762;12.302;2024-02-04T12:26:49;97891.06;;;6.78;98.94
72210;BME280;60113;48.762;12.302;2024-02-04T12:29:26;97885.91;;;6.77;99.88
72210;BME280;60113;48.762;12.302;2024-02-04T12:32:02;97882.44;;;6.76;99.84
72210;BME280;60113;48.762;12.302;2024-02-04T12:34:28;97871.91;;;6.78;99.64
72210;BME280;60113;48.762;12.302;2024-02-04T12:36:59;97874.53;;;6.78;99.42
72210;BME280;60113;48.762;12.302;2024-02-04T12:39:28;97861.47;;;6.78;98.32
72210;BME280;60113;48.762;12.302;2024-02-04T12:41:55;97858.03;;;6.77;98.00
72210;BME280;60113;48.762;12.302;2024-02-04T12:44:21;97849.34;;;6.77;98.44
72210;BME280;60113;48.762;12.302;2024-02-04T12:46:50;97844.03;;;6.78;97.42
72210;BME280;60113;48.762;12.302;2024-02-04T12:49:19;97847.41;;;6.80;96.69
72210;BME280;60113;48.762;12.302;2024-02-04T12:51:46;97846.34;;;6.84;98.22
72210;BME280;60113;48.762;12.302;2024-02-04T12:54:13;97840.00;;;6.88;97.16
72210;BME280;60113;48.762;12.302;2024-02-04T12:56:49;97835.50;;;6.92;96.41
72210;BME280;60113;48.762;12.302;2024-02-04T12:59:28;97841.41;;;6.96;97.93